createdAt,value
2022-11-09T00:01:48.783Z,24.08
2022-11-09T00:04:15.277Z,21.73
2022-11-09T00:06:41.755Z,25.55
2022-11-09T00:09:09.844Z,25.27
2022-11-09T00:11:39.575Z,27.98
2022-11-09T00:14:08.086Z,33.42
2022-11-09T00:16:37.284Z,30.50
2022-11-09T00:19:07.327Z,26.27
2022-11-09T00:21:34.248Z,24.65
2022-11-09T00:24:01.578Z,23.58
2022-11-09T00:26:35.150Z,24.50
2022-11-09T00:29:02.224Z,20.50
2022-11-09T00:31:31.954Z,20.48
2022-11-09T00:34:00.875Z,37.78
2022-11-09T00:36:30.852Z,55.65
2022-11-09T00:39:03.897Z,68.30
2022-11-09T00:41:30.502Z,53.90
2022-11-09T00:43:57.214Z,86.78
2022-11-09T00:46:31.508Z,52.95
2022-11-09T00:49:04.053Z,39.80
2022-11-09T00:51:31.457Z,68.93
2022-11-09T00:54:01.338Z,38.60
2022-11-09T00:56:27.848Z,39.15
2022-11-09T00:58:58.540Z,21.48
2022-11-09T01:01:32.778Z,21.23
2022-11-09T01:04:02.169Z,22.05
2022-11-09T01:06:28.817Z,20.33
2022-11-09T01:09:03.158Z,18.13
2022-11-09T01:11:30.088Z,17.35
2022-11-09T01:14:04.958Z,19.33
2022-11-09T01:16:34.443Z,19.55
2022-11-09T01:19:03.624Z,17.55
2022-11-09T01:21:38.056Z,20.13
2022-11-09T01:24:06.318Z,17.45
2022-11-09T01:26:38.317Z,16.73
2022-11-09T01:29:05.066Z,18.70
2022-11-09T01:31:34.816Z,17.58
2022-11-09T01:34:01.590Z,17.48
2022-11-09T01:36:28.536Z,17.60
2022-11-09T01:38:55.308Z,18.85
2022-11-09T01:41:28.633Z,19.00
2022-11-09T01:44:14.573Z,18.75
2022-11-09T01:46:56.188Z,17.35
2022-11-09T01:49:47.053Z,17.05
2022-11-09T01:52:29.234Z,18.27
2022-11-09T01:55:02.480Z,18.92
2022-11-09T01:57:39.612Z,19.95
2022-11-09T02:00:15.556Z,18.13
2022-11-09T02:03:12.798Z,17.88
2022-11-09T02:05:42.151Z,18.55
2022-11-09T02:08:15.407Z,19.10
2022-11-09T02:11:11.846Z,18.02
2022-11-09T02:13:51.043Z,17.08
2022-11-09T02:16:18.946Z,17.70
2022-11-09T02:18:52.708Z,18.05
2022-11-09T02:21:20.655Z,19.95
2022-11-09T02:23:48.093Z,20.88
2022-11-09T02:26:20.886Z,22.60
2022-11-09T02:28:48.180Z,17.83
2022-11-09T02:31:28.031Z,17.75
2022-11-09T02:34:13.341Z,17.63
2022-11-09T02:36:40.602Z,14.10
2022-11-09T02:39:09.633Z,14.35
2022-11-09T02:41:44.566Z,13.80
2022-11-09T02:44:16.251Z,14.82
2022-11-09T02:46:42.971Z,13.73
2022-11-09T02:49:11.603Z,14.18
2022-11-09T02:51:40.611Z,18.85
2022-11-09T02:54:17.783Z,44.47
2022-11-09T02:56:46.686Z,46.03
2022-11-09T02:59:13.189Z,49.03
2022-11-09T03:01:45.582Z,32.13
2022-11-09T03:04:12.057Z,35.08
2022-11-09T03:06:38.742Z,39.85
2022-11-09T03:09:09.829Z,20.50
2022-11-09T03:11:37.319Z,13.75
2022-11-09T03:14:06.947Z,13.98
2022-11-09T03:16:37.611Z,13.57
2022-11-09T03:19:09.538Z,13.02
2022-11-09T03:21:36.026Z,12.98
2022-11-09T03:24:03.078Z,14.02
2022-11-09T03:26:29.665Z,14.90
2022-11-09T03:28:56.301Z,16.90
2022-11-09T03:31:23.916Z,20.48
2022-11-09T03:33:51.995Z,16.75
2022-11-09T03:36:18.435Z,19.45
2022-11-09T03:38:47.809Z,16.02
2022-11-09T03:41:19.912Z,16.98
2022-11-09T03:46:28.512Z,25.85
2022-11-09T03:48:54.958Z,20.20
2022-11-09T03:51:27.752Z,23.02
2022-11-09T03:53:57.134Z,20.42
2022-11-09T03:56:24.192Z,18.40
2022-11-09T03:58:53.147Z,17.52
2022-11-09T04:01:20.119Z,15.25
2022-11-09T04:03:49.431Z,15.60
2022-11-09T04:06:19.034Z,17.67
2022-11-09T04:08:50.954Z,15.80
2022-11-09T04:11:18.359Z,16.42
2022-11-09T04:13:47.646Z,19.85
2022-11-09T04:16:17.201Z,17.00
2022-11-09T04:18:43.611Z,17.98
2022-11-09T04:21:10.029Z,18.80
2022-11-09T04:23:36.540Z,20.48
2022-11-09T04:26:03.240Z,17.63
2022-11-09T04:28:29.726Z,16.75
2022-11-09T04:31:00.217Z,16.92
2022-11-09T04:33:26.642Z,17.23
2022-11-09T04:35:53.113Z,17.00
2022-11-09T04:38:19.536Z,18.83
2022-11-09T04:40:45.962Z,18.10
2022-11-09T04:43:14.084Z,17.42
2022-11-09T04:45:40.614Z,15.75
2022-11-09T04:48:09.752Z,17.55
2022-11-09T04:50:36.277Z,18.15
2022-11-09T04:53:13.817Z,18.40
2022-11-09T04:55:40.963Z,17.15
2022-11-09T04:58:07.847Z,17.73
2022-11-09T05:00:34.780Z,18.45
2022-11-09T05:03:02.882Z,18.45
2022-11-09T05:05:29.899Z,18.00
2022-11-09T05:07:56.550Z,18.50
2022-11-09T05:10:23.114Z,19.08
2022-11-09T05:12:49.691Z,17.23
2022-11-09T05:15:16.225Z,19.17
2022-11-09T05:17:42.797Z,18.80
2022-11-09T05:20:09.807Z,18.05
2022-11-09T05:22:58.706Z,18.05
2022-11-09T05:25:25.189Z,17.65
2022-11-09T05:27:52.356Z,16.73
2022-11-09T05:30:18.878Z,18.48
2022-11-09T05:32:45.295Z,19.10
2022-11-09T05:35:11.826Z,19.40
2022-11-09T05:37:39.535Z,18.02
2022-11-09T05:40:08.419Z,20.52
2022-11-09T05:42:38.243Z,16.10
2022-11-09T05:45:35.622Z,18.90
2022-11-09T05:47:51.903Z,17.45
2022-11-09T05:50:18.382Z,17.92
2022-11-09T05:52:44.831Z,17.63
2022-11-09T05:55:11.312Z,18.27
2022-11-09T05:57:37.754Z,19.02
2022-11-09T06:00:10.678Z,18.45
2022-11-09T06:02:37.546Z,19.40
2022-11-09T06:05:04.182Z,18.73
2022-11-09T06:07:30.613Z,18.00
2022-11-09T06:09:57.034Z,18.20
2022-11-09T06:12:23.448Z,17.52
2022-11-09T06:14:49.893Z,18.27
2022-11-09T06:17:16.356Z,19.13
2022-11-09T06:19:42.853Z,18.40
2022-11-09T06:22:09.758Z,17.30
2022-11-09T06:24:36.316Z,17.02
2022-11-09T06:27:02.816Z,19.08
2022-11-09T06:29:29.280Z,16.80
2022-11-09T06:31:55.806Z,17.17
2022-11-09T06:34:22.271Z,16.85
2022-11-09T06:36:48.797Z,18.35
2022-11-09T06:39:15.252Z,17.75
2022-11-09T06:41:46.229Z,16.77
2022-11-09T06:44:14.038Z,16.17
2022-11-09T06:46:40.564Z,16.13
2022-11-09T06:49:07.115Z,16.75
2022-11-09T06:51:33.581Z,20.15
2022-11-09T06:53:59.997Z,16.05
2022-11-09T06:56:27.774Z,18.08
2022-11-09T06:58:54.308Z,17.23
2022-11-09T07:01:25.342Z,17.80
2022-11-09T07:03:51.804Z,19.92
2022-11-09T07:06:18.508Z,17.48
2022-11-09T07:08:44.938Z,19.92
2022-11-09T07:11:16.043Z,19.33
2022-11-09T07:13:42.749Z,19.40
2022-11-09T07:16:09.263Z,17.30
2022-11-09T07:18:35.705Z,18.55
2022-11-09T07:21:07.722Z,19.45
2022-11-09T07:23:38.018Z,19.83
2022-11-09T07:26:04.705Z,21.95
2022-11-09T07:28:31.203Z,19.10
2022-11-09T07:30:58.788Z,17.88
2022-11-09T07:33:26.640Z,19.25
2022-11-09T07:35:53.385Z,20.83
2022-11-09T07:38:19.873Z,19.40
2022-11-09T07:40:46.313Z,21.50
2022-11-09T07:43:13.151Z,21.92
2022-11-09T07:45:40.122Z,27.50
2022-11-09T07:48:10.132Z,27.73
2022-11-09T07:50:37.858Z,56.08
2022-11-09T07:53:07.068Z,44.30
2022-11-09T07:55:34.619Z,25.48
2022-11-09T07:58:04.145Z,20.80
2022-11-09T08:00:33.404Z,20.30
2022-11-09T08:03:00.109Z,34.70
2022-11-09T08:05:26.615Z,24.77
2022-11-09T08:07:58.237Z,46.63
2022-11-09T08:10:26.702Z,26.50
2022-11-09T08:12:58.152Z,20.73
2022-11-09T08:15:25.294Z,26.88
2022-11-09T08:17:52.095Z,30.13
2022-11-09T08:20:19.966Z,27.38
2022-11-09T08:22:47.405Z,22.92
2022-11-09T08:25:14.837Z,34.33
2022-11-09T08:27:41.955Z,22.85
2022-11-09T08:30:16.751Z,21.90
2022-11-09T08:32:44.442Z,20.65
2022-11-09T08:35:16.778Z,23.05
2022-11-09T08:37:49.050Z,20.38
2022-11-09T08:40:18.508Z,20.35
2022-11-09T08:42:45.182Z,23.33
2022-11-09T08:45:12.103Z,21.50
2022-11-09T08:47:41.699Z,21.95
2022-11-09T08:50:10.072Z,20.67
2022-11-09T08:52:37.134Z,23.08
2022-11-09T08:55:04.233Z,21.48
2022-11-09T08:57:31.519Z,20.67
2022-11-09T08:59:58.127Z,18.92
2022-11-09T09:02:24.655Z,20.63
2022-11-09T09:04:51.083Z,20.95
2022-11-09T09:07:17.576Z,19.38
2022-11-09T09:09:44.102Z,20.90
2022-11-09T09:12:10.555Z,21.13
2022-11-09T09:14:37.488Z,18.73
2022-11-09T09:17:04.405Z,18.80
2022-11-09T09:19:31.891Z,21.13
2022-11-09T09:21:59.197Z,19.60
2022-11-09T09:24:26.798Z,20.42
2022-11-09T09:26:53.441Z,19.95
2022-11-09T09:29:19.875Z,20.60
2022-11-09T09:31:46.478Z,21.17
2022-11-09T09:34:13.797Z,21.98
2022-11-09T09:36:44.862Z,21.75
2022-11-09T09:39:14.500Z,19.40
2022-11-09T09:41:48.714Z,20.83
2022-11-09T09:44:17.808Z,19.27
2022-11-09T09:46:53.226Z,23.38
2022-11-09T09:49:28.618Z,23.90
2022-11-09T09:52:02.956Z,21.05
2022-11-09T09:54:41.098Z,19.95
2022-11-09T09:57:16.541Z,21.60
2022-11-09T09:59:47.387Z,20.58
2022-11-09T10:02:31.304Z,21.00
2022-11-09T10:05:00.958Z,22.77
2022-11-09T10:07:34.223Z,20.77
2022-11-09T10:10:03.330Z,22.83
2022-11-09T10:13:01.161Z,20.40
2022-11-09T10:15:50.733Z,21.35
2022-11-09T10:18:47.483Z,22.15
2022-11-09T10:21:30.731Z,23.67
2022-11-09T10:24:16.235Z,23.33
2022-11-09T10:26:50.623Z,22.60
2022-11-09T10:29:35.714Z,20.90
2022-11-09T10:32:23.045Z,20.92
2022-11-09T10:34:59.857Z,20.25
2022-11-09T10:37:33.160Z,20.63
2022-11-09T10:40:09.435Z,21.10
2022-11-09T10:42:35.882Z,20.73
2022-11-09T10:45:17.701Z,21.13
2022-11-09T10:47:49.419Z,20.15
2022-11-09T10:50:29.779Z,20.90
2022-11-09T10:53:23.596Z,21.30
2022-11-09T10:55:49.938Z,20.35
2022-11-09T10:58:36.197Z,21.08
2022-11-09T11:01:12.148Z,24.50
2022-11-09T11:03:39.886Z,22.20
2022-11-09T11:06:11.524Z,21.42
2022-11-09T11:08:40.893Z,20.63
2022-11-09T11:11:34.191Z,21.52
2022-11-09T11:14:23.347Z,21.02
2022-11-09T11:16:52.905Z,21.25
2022-11-09T11:19:37.211Z,22.45
2022-11-09T11:22:19.326Z,23.40
2022-11-09T11:25:00.484Z,25.35
2022-11-09T11:27:45.001Z,21.88
2022-11-09T11:30:14.161Z,21.85
2022-11-09T11:32:44.145Z,22.40
2022-11-09T11:35:38.295Z,22.67
2022-11-09T11:38:16.575Z,22.75
2022-11-09T11:41:00.598Z,23.90
2022-11-09T11:43:48.433Z,28.55
2022-11-09T11:46:32.949Z,28.23
2022-11-09T11:49:42.534Z,27.88
2022-11-09T11:52:11.925Z,24.20
2022-11-09T11:55:03.330Z,23.38
2022-11-09T12:00:19.061Z,24.20
2022-11-09T12:03:03.913Z,21.98
2022-11-09T12:05:50.086Z,23.70
2022-11-09T12:08:44.310Z,23.73
2022-11-09T12:11:16.783Z,22.40
2022-11-09T12:13:57.544Z,23.83
2022-11-09T12:16:44.521Z,24.77
2022-11-09T12:19:27.059Z,25.27
2022-11-09T12:22:17.984Z,25.13
2022-11-09T12:25:01.391Z,22.73
2022-11-09T12:27:46.718Z,23.38
2022-11-09T12:30:25.959Z,22.60
2022-11-09T12:33:24.533Z,22.05
2022-11-09T12:36:01.373Z,21.95
2022-11-09T12:38:39.727Z,22.88
2022-11-09T12:41:15.143Z,25.25
2022-11-09T12:43:54.380Z,25.30
2022-11-09T12:46:27.937Z,25.73
2022-11-09T12:48:56.540Z,25.13
2022-11-09T12:51:23.695Z,26.77
2022-11-09T12:53:50.113Z,24.17
2022-11-09T12:56:27.344Z,24.67
2022-11-09T12:59:28.947Z,24.25
2022-11-09T13:04:24.977Z,23.00
2022-11-09T13:07:03.404Z,25.88
2022-11-09T13:09:44.078Z,25.38
2022-11-09T13:14:55.881Z,25.80
2022-11-09T13:17:25.101Z,24.65
2022-11-09T13:19:56.827Z,25.45
2022-11-09T13:22:23.237Z,25.02
2022-11-09T13:24:50.993Z,23.80
2022-11-09T13:27:37.736Z,25.20
2022-11-09T13:30:24.652Z,25.75
2022-11-09T13:33:19.346Z,26.13
2022-11-09T13:35:45.980Z,23.90
2022-11-09T13:38:31.611Z,24.60
2022-11-09T13:41:02.197Z,25.23
2022-11-09T13:43:46.764Z,27.85
2022-11-09T13:46:38.132Z,27.35
2022-11-09T13:49:39.406Z,24.05
2022-11-09T13:52:25.987Z,26.63
2022-11-09T13:54:54.115Z,25.92
2022-11-09T13:57:22.873Z,24.13
2022-11-09T13:59:50.109Z,27.77
2022-11-09T14:02:24.896Z,26.33
2022-11-09T14:04:51.763Z,25.02
2022-11-09T14:07:30.760Z,26.58
2022-11-09T14:10:31.853Z,26.55
2022-11-09T14:12:58.237Z,27.00
2022-11-09T14:15:36.911Z,28.42
2022-11-09T14:18:21.891Z,25.60
2022-11-09T14:21:36.149Z,26.67
2022-11-09T14:24:15.874Z,26.88
2022-11-09T14:27:00.612Z,26.50
2022-11-09T14:29:27.796Z,25.85
2022-11-09T14:31:54.407Z,23.40
2022-11-09T14:34:21.226Z,25.52
2022-11-09T14:36:48.918Z,25.85
2022-11-09T14:39:30.280Z,25.00
2022-11-09T14:44:40.378Z,24.65
2022-11-09T14:47:15.656Z,25.42
2022-11-09T14:49:43.002Z,32.75
2022-11-09T14:52:16.076Z,29.92
2022-11-09T14:54:45.589Z,24.77
2022-11-09T14:57:17.194Z,26.65
2022-11-09T14:59:45.298Z,25.15
2022-11-09T15:02:20.048Z,26.65
2022-11-09T15:05:01.456Z,26.42
2022-11-09T15:10:03.025Z,25.52
2022-11-09T15:12:30.510Z,27.80
2022-11-09T15:15:02.189Z,25.48
2022-11-09T15:17:37.168Z,27.20
2022-11-09T15:20:23.629Z,25.95
2022-11-09T15:22:53.510Z,27.33
2022-11-09T15:25:43.263Z,26.83
2022-11-09T15:28:09.758Z,25.85
2022-11-09T15:30:44.697Z,25.40
2022-11-09T15:33:18.134Z,27.77
2022-11-09T15:35:56.549Z,31.70
2022-11-09T15:38:45.500Z,27.30
2022-11-09T15:41:18.005Z,26.77
2022-11-09T15:43:44.852Z,26.67
2022-11-09T15:46:14.085Z,28.50
2022-11-09T15:48:45.577Z,30.20
2022-11-09T15:51:14.021Z,28.27
2022-11-09T15:53:40.513Z,30.50
2022-11-09T15:56:09.694Z,31.40
2022-11-09T15:58:36.149Z,32.53
2022-11-09T16:01:02.625Z,30.38
2022-11-09T16:03:29.099Z,30.70
2022-11-09T16:05:55.604Z,30.20
2022-11-09T16:08:22.375Z,31.92
2022-11-09T16:10:49.010Z,32.05
2022-11-09T16:13:15.440Z,31.75
2022-11-09T16:15:41.948Z,31.38
2022-11-09T16:18:08.394Z,34.22
2022-11-09T16:20:34.882Z,32.90
2022-11-09T16:23:01.425Z,33.78
2022-11-09T16:25:28.183Z,34.97
2022-11-09T16:27:54.797Z,31.67
2022-11-09T16:30:21.760Z,35.00
2022-11-09T16:32:48.368Z,33.92
2022-11-09T16:35:26.716Z,33.60
2022-11-09T16:37:55.474Z,34.05
2022-11-09T16:40:22.333Z,34.53
2022-11-09T16:42:49.725Z,36.67
2022-11-09T16:45:20.856Z,35.65
2022-11-09T16:47:50.936Z,35.83
2022-11-09T16:50:17.959Z,36.72
2022-11-09T16:52:44.947Z,38.22
2022-11-09T16:55:11.616Z,33.13
2022-11-09T16:57:38.193Z,35.65
2022-11-09T17:00:08.837Z,34.40
2022-11-09T17:02:35.470Z,35.05
2022-11-09T17:05:02.102Z,36.20
2022-11-09T17:07:28.686Z,35.40
2022-11-09T17:09:55.229Z,34.53
2022-11-09T17:12:21.955Z,37.78
2022-11-09T17:14:48.580Z,43.05
2022-11-09T17:17:21.268Z,39.58
2022-11-09T17:19:49.248Z,34.42
2022-11-09T17:22:16.402Z,38.85
2022-11-09T17:24:42.950Z,38.58
2022-11-09T17:27:10.176Z,40.05
2022-11-09T17:29:37.893Z,42.38
2022-11-09T17:32:07.139Z,43.15
2022-11-09T17:34:33.969Z,41.40
2022-11-09T17:37:05.429Z,41.42
2022-11-09T17:39:32.742Z,37.60
2022-11-09T17:41:59.372Z,34.20
2022-11-09T17:44:25.889Z,41.45
2022-11-09T17:46:52.471Z,38.20
2022-11-09T17:49:19.059Z,36.42
2022-11-09T17:51:45.663Z,35.45
2022-11-09T17:54:12.460Z,38.70
2022-11-09T17:56:39.637Z,36.70
2022-11-09T17:59:06.226Z,39.53
2022-11-09T18:01:37.824Z,36.03
2022-11-09T18:04:08.569Z,38.65
2022-11-09T18:06:35.094Z,39.30
2022-11-09T18:09:39.243Z,37.28
2022-11-09T18:11:48.509Z,36.95
2022-11-09T18:14:16.043Z,38.47
2022-11-09T18:16:42.564Z,39.45
2022-11-09T18:19:09.076Z,39.45
2022-11-09T18:21:35.643Z,39.08
2022-11-09T18:24:02.191Z,37.50
2022-11-09T18:26:28.861Z,38.70
2022-11-09T18:28:56.769Z,37.85
2022-11-09T18:31:23.570Z,39.45
2022-11-09T18:33:50.806Z,37.05
2022-11-09T18:36:19.745Z,37.95
2022-11-09T18:38:47.038Z,40.22
2022-11-09T18:41:17.742Z,84.20
2022-11-09T18:43:45.109Z,58.38
2022-11-09T18:46:14.311Z,70.50
2022-11-09T18:48:41.021Z,47.28
2022-11-09T18:51:09.743Z,43.42
2022-11-09T18:53:39.679Z,38.22
2022-11-09T18:56:08.907Z,41.25
2022-11-09T18:58:35.831Z,47.20
2022-11-09T19:01:06.734Z,41.85
2022-11-09T19:03:33.422Z,37.88
2022-11-09T19:06:05.130Z,38.00
2022-11-09T19:08:50.302Z,38.80
2022-11-09T19:11:16.824Z,41.97
2022-11-09T19:13:43.341Z,39.30
2022-11-09T19:16:12.020Z,40.03
2022-11-09T19:18:39.116Z,42.22
2022-11-09T19:21:06.994Z,43.58
2022-11-09T19:23:34.834Z,47.20
2022-11-09T19:26:01.950Z,41.95
2022-11-09T19:28:28.511Z,45.78
2022-11-09T19:30:54.997Z,44.13
2022-11-09T19:33:21.488Z,47.60
2022-11-09T19:36:15.051Z,50.63
2022-11-09T19:38:39.015Z,47.72
2022-11-09T19:41:05.755Z,44.00
2022-11-09T19:43:32.343Z,43.75
2022-11-09T19:45:58.900Z,41.80
2022-11-09T19:48:25.631Z,40.95
2022-11-09T19:50:53.041Z,41.40
2022-11-09T19:53:19.793Z,38.95
2022-11-09T19:55:46.280Z,51.20
2022-11-09T19:58:12.911Z,43.67
2022-11-09T20:00:39.413Z,41.45
2022-11-09T20:03:06.076Z,40.88
2022-11-09T20:05:35.905Z,41.78
2022-11-09T20:08:04.164Z,46.40
2022-11-09T20:10:30.791Z,43.53
2022-11-09T20:12:57.379Z,41.88
2022-11-09T20:15:23.991Z,43.22
2022-11-09T20:17:50.507Z,43.05
2022-11-09T20:20:17.212Z,41.45
2022-11-09T20:22:43.767Z,41.30
2022-11-09T20:25:10.412Z,41.88
2022-11-09T20:27:36.968Z,41.22
2022-11-09T20:30:04.203Z,41.42
2022-11-09T20:32:30.714Z,41.97
2022-11-09T20:34:57.246Z,43.50
2022-11-09T20:37:23.832Z,40.60
2022-11-09T20:39:50.340Z,41.05
2022-11-09T20:42:17.153Z,42.13
2022-11-09T20:44:43.702Z,40.30
2022-11-09T20:47:10.208Z,43.40
2022-11-09T20:49:36.752Z,40.97
2022-11-09T20:52:03.383Z,44.63
2022-11-09T20:54:29.884Z,42.72
2022-11-09T20:56:56.413Z,40.78
2022-11-09T20:59:23.001Z,42.28
2022-11-09T21:01:49.508Z,39.55
2022-11-09T21:04:16.420Z,39.42
2022-11-09T21:06:43.077Z,39.22
2022-11-09T21:09:09.690Z,39.80
2022-11-09T21:11:36.575Z,42.17
2022-11-09T21:14:03.535Z,41.38
2022-11-09T21:16:30.179Z,40.00
2022-11-09T21:18:56.676Z,38.80
2022-11-09T21:21:25.052Z,48.60
2022-11-09T21:24:10.169Z,62.35
2022-11-09T21:26:55.235Z,53.10
2022-11-09T21:29:42.995Z,73.53
2022-11-09T21:32:11.612Z,158.32
2022-11-09T21:34:38.439Z,71.90
2022-11-09T21:37:05.330Z,83.18
2022-11-09T21:39:32.348Z,93.63
2022-11-09T21:41:58.947Z,138.55
2022-11-09T21:44:28.657Z,77.35
2022-11-09T21:46:55.275Z,99.20
2022-11-09T21:49:22.076Z,144.57
2022-11-09T21:51:48.887Z,132.93
2022-11-09T21:54:15.432Z,83.18
2022-11-09T21:56:42.374Z,109.35
2022-11-09T21:59:09.450Z,94.50
2022-11-09T22:01:36.337Z,89.35
2022-11-09T22:04:02.874Z,62.78
2022-11-09T22:06:30.281Z,51.95
2022-11-09T22:08:57.149Z,58.15
2022-11-09T22:11:45.206Z,44.47
2022-11-09T22:14:35.053Z,43.83
2022-11-09T22:17:02.429Z,47.80
2022-11-09T22:19:47.685Z,43.42
2022-11-09T22:22:15.238Z,43.65
2022-11-09T22:24:42.408Z,42.83
2022-11-09T22:27:08.963Z,43.13
2022-11-09T22:29:35.513Z,56.33
2022-11-09T22:32:02.102Z,65.70
2022-11-09T22:34:28.603Z,59.40
2022-11-09T22:36:55.094Z,51.35
2022-11-09T22:39:21.673Z,57.47
2022-11-09T22:41:48.172Z,46.53
2022-11-09T22:44:14.758Z,44.10
2022-11-09T22:46:41.307Z,57.20
2022-11-09T22:49:08.548Z,86.20
2022-11-09T22:51:35.227Z,76.50
2022-11-09T22:54:01.719Z,53.10
2022-11-09T22:56:28.216Z,48.03
2022-11-09T22:58:54.718Z,44.17
2022-11-09T23:01:21.542Z,54.50
2022-11-09T23:03:48.103Z,48.08
2022-11-09T23:06:19.327Z,47.88
2022-11-09T23:11:16.137Z,46.88
2022-11-09T23:13:43.831Z,44.78
2022-11-09T23:16:11.858Z,49.83
2022-11-09T23:18:53.842Z,46.95
2022-11-09T23:21:37.178Z,48.00
2022-11-09T23:24:06.440Z,46.42
2022-11-09T23:26:34.159Z,49.05
2022-11-09T23:29:00.915Z,44.85
2022-11-09T23:31:27.794Z,48.03
2022-11-09T23:33:57.119Z,44.67
2022-11-09T23:36:25.662Z,48.53
2022-11-09T23:38:52.518Z,46.00
2022-11-09T23:41:19.408Z,46.35
2022-11-09T23:43:49.330Z,46.13
2022-11-09T23:46:17.011Z,45.53
2022-11-09T23:48:43.607Z,47.33
2022-11-09T23:51:10.738Z,49.00
2022-11-09T23:53:37.715Z,46.70
2022-11-09T23:56:10.103Z,42.13
2022-11-09T23:58:37.458Z,46.83
